sensor_id;sensor_type;location;lat;lon;timestamp;pressure;altitude;pressure_sealevel;temperature;humidity
38718;BME280;24468;52.128;9.278;2023-03-22T00:01:26;100211.97;;;10.27;100.00
38718;BME280;24468;52.128;9.278;2023-03-22T00:03:55;100198.53;;;10.25;100.00
38718;BME280;24468;52.128;9.278;2023-03-22T00:06:22;100213.72;;;10.28;100.00
38718;BME280;24468;52.128;9.278;2023-03-22T00:08:49;100208.25;;;10.11;100.00
38718;BME280;24468;52.128;9.278;2023-03-22T00:11:16;100209.09;;;10.11;100.00
38718;BME280;24468;52.128;9.278;2023-03-22T00:13:42;100209.84;;;9.96;100.00
38718;BME280;24468;52.128;9.278;2023-03-22T00:16:09;100206.91;;;10.00;100.00
38718;BME280;24468;52.128;9.278;2023-03-22T00:18:35;100204.16;;;10.02;100.00
38718;BME280;24468;52.128;9.278;2023-03-22T00:21:01;100206.91;;;10.19;100.00
38718;BME280;24468;52.128;9.278;2023-03-22T00:23:28;100209.09;;;10.11;100.00
38718;BME280;24468;52.128;9.278;2023-03-22T00:25:54;100209.34;;;10.07;100.00
38718;BME280;24468;52.128;9.278;2023-03-22T00:28:19;100208.53;;;10.05;100.00
38718;BME280;24468;52.128;9.278;2023-03-22T00:30:58;100202.84;;;10.11;100.00
38718;BME280;24468;52.128;9.278;2023-03-22T00:33:24;100192.66;;;9.98;100.00
38718;BME280;24468;52.128;9.278;2023-03-22T00:35:51;100199.13;;;10.13;100.00
38718;BME280;24468;52.128;9.278;2023-03-22T00:38:17;100191.69;;;10.18;100.00
38718;BME280;24468;52.128;9.278;2023-03-22T00:40:43;100182.59;;;10.21;100.00
38718;BME280;24468;52.128;9.278;2023-03-22T00:43:09;100183.03;;;10.31;100.00
38718;BME280;24468;52.128;9.278;2023-03-22T00:45:34;100173.16;;;10.31;100.00
38718;BME280;24468;52.128;9.278;2023-03-22T00:48:09;100162.06;;;10.37;100.00
38718;BME280;24468;52.128;9.278;2023-03-22T00:50:37;100165.31;;;10.06;100.00
38718;BME280;24468;52.128;9.278;2023-03-22T00:53:03;100167.50;;;10.36;100.00
38718;BME280;24468;52.128;9.278;2023-03-22T00:55:29;100160.94;;;10.41;100.00
38718;BME280;24468;52.128;9.278;2023-03-22T00:57:55;100161.31;;;10.34;100.00
38718;BME280;24468;52.128;9.278;2023-03-22T01:00:21;100156.88;;;10.33;100.00
38718;BME280;24468;52.128;9.278;2023-03-22T01:02:46;100159.41;;;10.17;100.00
38718;BME280;24468;52.128;9.278;2023-03-22T01:05:12;100153.97;;;10.18;100.00
38718;BME280;24468;52.128;9.278;2023-03-22T01:07:43;100158.41;;;10.38;100.00
38718;BME280;24468;52.128;9.278;2023-03-22T01:10:10;100156.50;;;10.40;100.00
38718;BME280;24468;52.128;9.278;2023-03-22T01:12:36;100158.19;;;10.24;100.00
38718;BME280;24468;52.128;9.278;2023-03-22T01:15:05;100164.25;;;10.29;100.00
38718;BME280;24468;52.128;9.278;2023-03-22T01:17:31;100154.53;;;10.25;100.00
38718;BME280;24468;52.128;9.278;2023-03-22T01:19:57;100157.16;;;10.27;100.00
38718;BME280;24468;52.128;9.278;2023-03-22T01:22:22;100155.94;;;10.15;100.00
38718;BME280;24468;52.128;9.278;2023-03-22T01:24:49;100152.19;;;10.17;100.00
38718;BME280;24468;52.128;9.278;2023-03-22T01:27:15;100155.19;;;10.11;100.00
38718;BME280;24468;52.128;9.278;2023-03-22T01:29:41;100147.56;;;10.21;100.00
38718;BME280;24468;52.128;9.278;2023-03-22T01:32:07;100143.56;;;10.11;100.00
38718;BME280;24468;52.128;9.278;2023-03-22T01:34:33;100148.13;;;10.09;100.00
38718;BME280;24468;52.128;9.278;2023-03-22T01:36:59;100142.91;;;10.06;100.00
38718;BME280;24468;52.128;9.278;2023-03-22T01:39:24;100141.88;;;10.08;100.00
38718;BME280;24468;52.128;9.278;2023-03-22T01:41:51;100138.59;;;10.20;100.00
38718;BME280;24468;52.128;9.278;2023-03-22T01:44:21;100134.06;;;10.40;100.00
38718;BME280;24468;52.128;9.278;2023-03-22T01:46:49;100131.75;;;10.13;100.00
38718;BME280;24468;52.128;9.278;2023-03-22T01:49:30;100126.34;;;10.13;100.00
38718;BME280;24468;52.128;9.278;2023-03-22T01:52:03;100128.84;;;9.99;100.00
38718;BME280;24468;52.128;9.278;2023-03-22T01:54:36;100124.84;;;10.08;100.00
38718;BME280;24468;52.128;9.278;2023-03-22T01:57:05;100125.06;;;10.03;100.00
38718;BME280;24468;52.128;9.278;2023-03-22T01:59:31;100112.94;;;10.12;100.00
38718;BME280;24468;52.128;9.278;2023-03-22T02:01:58;100113.19;;;10.07;100.00
38718;BME280;24468;52.128;9.278;2023-03-22T02:04:33;100110.72;;;10.02;100.00
38718;BME280;24468;52.128;9.278;2023-03-22T02:07:05;100105.25;;;10.04;100.00
38718;BME280;24468;52.128;9.278;2023-03-22T02:09:37;100095.09;;;10.28;100.00
38718;BME280;24468;52.128;9.278;2023-03-22T02:21:54;100095.03;;;10.11;100.00
38718;BME280;24468;52.128;9.278;2023-03-22T02:24:53;100098.69;;;10.10;100.00
38718;BME280;24468;52.128;9.278;2023-03-22T02:27:38;100094.00;;;10.13;100.00
38718;BME280;24468;52.128;9.278;2023-03-22T02:30:43;100096.66;;;10.15;100.00
38718;BME280;24468;52.128;9.278;2023-03-22T02:44:49;100089.31;;;10.36;100.00
38718;BME280;24468;52.128;9.278;2023-03-22T02:49:56;100091.59;;;10.26;100.00
38718;BME280;24468;52.128;9.278;2023-03-22T02:52:39;100083.13;;;10.34;100.00
38718;BME280;24468;52.128;9.278;2023-03-22T02:58:18;100080.06;;;10.22;100.00
38718;BME280;24468;52.128;9.278;2023-03-22T03:00:50;100081.03;;;10.21;100.00
38718;BME280;24468;52.128;9.278;2023-03-22T03:03:18;100075.94;;;10.15;100.00
38718;BME280;24468;52.128;9.278;2023-03-22T03:05:49;100066.31;;;10.29;100.00
38718;BME280;24468;52.128;9.278;2023-03-22T03:08:18;100073.22;;;10.34;100.00
38718;BME280;24468;52.128;9.278;2023-03-22T03:10:45;100071.31;;;10.17;100.00
38718;BME280;24468;52.128;9.278;2023-03-22T03:13:16;100075.63;;;10.21;100.00
38718;BME280;24468;52.128;9.278;2023-03-22T03:15:47;100074.97;;;10.16;100.00
38718;BME280;24468;52.128;9.278;2023-03-22T03:19:00;100069.28;;;10.22;100.00
38718;BME280;24468;52.128;9.278;2023-03-22T03:29:57;100066.50;;;10.24;100.00
38718;BME280;24468;52.128;9.278;2023-03-22T03:32:41;100063.00;;;10.22;100.00
38718;BME280;24468;52.128;9.278;2023-03-22T03:38:15;100058.84;;;10.34;100.00
38718;BME280;24468;52.128;9.278;2023-03-22T03:41:02;100051.72;;;10.33;100.00
38718;BME280;24468;52.128;9.278;2023-03-22T03:43:30;100048.47;;;10.43;100.00
38718;BME280;24468;52.128;9.278;2023-03-22T03:45:56;100046.44;;;10.31;100.00
38718;BME280;24468;52.128;9.278;2023-03-22T03:48:27;100046.31;;;10.33;100.00
38718;BME280;24468;52.128;9.278;2023-03-22T03:50:55;100044.53;;;10.51;100.00
38718;BME280;24468;52.128;9.278;2023-03-22T03:53:22;100042.84;;;10.31;100.00
38718;BME280;24468;52.128;9.278;2023-03-22T03:55:47;100036.72;;;10.44;100.00
38718;BME280;24468;52.128;9.278;2023-03-22T03:58:13;100031.81;;;10.35;100.00
38718;BME280;24468;52.128;9.278;2023-03-22T04:00:41;100033.88;;;10.65;100.00
38718;BME280;24468;52.128;9.278;2023-03-22T04:03:07;100034.28;;;10.57;100.00
38718;BME280;24468;52.128;9.278;2023-03-22T04:05:32;100037.50;;;10.64;100.00
38718;BME280;24468;52.128;9.278;2023-03-22T04:07:58;100033.06;;;10.63;100.00
38718;BME280;24468;52.128;9.278;2023-03-22T04:10:23;100035.38;;;10.71;100.00
38718;BME280;24468;52.128;9.278;2023-03-22T04:12:49;100038.69;;;10.58;100.00
38718;BME280;24468;52.128;9.278;2023-03-22T04:15:15;100040.75;;;10.71;100.00
38718;BME280;24468;52.128;9.278;2023-03-22T04:17:41;100032.97;;;10.82;100.00
38718;BME280;24468;52.128;9.278;2023-03-22T04:20:09;100031.72;;;10.54;100.00
38718;BME280;24468;52.128;9.278;2023-03-22T04:22:37;100023.72;;;10.53;100.00
38718;BME280;24468;52.128;9.278;2023-03-22T04:25:05;100035.78;;;10.63;100.00
38718;BME280;24468;52.128;9.278;2023-03-22T04:27:31;100019.59;;;10.63;100.00
38718;BME280;24468;52.128;9.278;2023-03-22T04:29:56;100031.25;;;10.63;100.00
38718;BME280;24468;52.128;9.278;2023-03-22T04:32:22;100031.31;;;10.79;100.00
38718;BME280;24468;52.128;9.278;2023-03-22T04:34:49;100025.69;;;10.66;100.00
38718;BME280;24468;52.128;9.278;2023-03-22T04:37:15;100029.41;;;10.64;100.00
38718;BME280;24468;52.128;9.278;2023-03-22T04:39:41;100019.50;;;10.64;100.00
38718;BME280;24468;52.128;9.278;2023-03-22T04:42:07;100016.81;;;10.98;100.00
38718;BME280;24468;52.128;9.278;2023-03-22T04:44:33;100013.69;;;10.89;100.00
38718;BME280;24468;52.128;9.278;2023-03-22T04:46:59;100010.53;;;10.81;100.00
38718;BME280;24468;52.128;9.278;2023-03-22T04:49:25;100020.09;;;10.87;100.00
38718;BME280;24468;52.128;9.278;2023-03-22T04:51:55;100020.47;;;10.97;100.00
38718;BME280;24468;52.128;9.278;2023-03-22T04:54:21;100012.28;;;10.98;100.00
38718;BME280;24468;52.128;9.278;2023-03-22T04:56:47;100012.22;;;11.16;100.00
38718;BME280;24468;52.128;9.278;2023-03-22T04:59:13;100012.41;;;11.12;100.00
38718;BME280;24468;52.128;9.278;2023-03-22T05:01:38;100007.97;;;11.11;100.00
38718;BME280;24468;52.128;9.278;2023-03-22T05:04:06;100020.59;;;11.11;100.00
38718;BME280;24468;52.128;9.278;2023-03-22T05:06:32;100010.56;;;11.13;100.00
38718;BME280;24468;52.128;9.278;2023-03-22T05:08:59;99999.25;;;11.06;100.00
38718;BME280;24468;52.128;9.278;2023-03-22T05:11:25;99998.91;;;11.12;100.00
38718;BME280;24468;52.128;9.278;2023-03-22T05:13:55;100000.16;;;11.23;100.00
38718;BME280;24468;52.128;9.278;2023-03-22T05:16:23;100013.03;;;10.84;100.00
38718;BME280;24468;52.128;9.278;2023-03-22T05:18:49;100018.22;;;10.89;100.00
38718;BME280;24468;52.128;9.278;2023-03-22T05:21:21;100020.75;;;10.75;100.00
38718;BME280;24468;52.128;9.278;2023-03-22T05:23:47;100013.69;;;10.89;100.00
38718;BME280;24468;52.128;9.278;2023-03-22T05:26:14;100017.69;;;10.98;100.00
38718;BME280;24468;52.128;9.278;2023-03-22T05:28:42;100017.88;;;10.95;100.00
38718;BME280;24468;52.128;9.278;2023-03-22T05:31:08;100014.31;;;11.10;100.00
38718;BME280;24468;52.128;9.278;2023-03-22T05:33:35;100013.84;;;11.02;100.00
38718;BME280;24468;52.128;9.278;2023-03-22T05:36:00;100013.16;;;10.99;100.00
38718;BME280;24468;52.128;9.278;2023-03-22T05:38:27;100010.13;;;11.05;100.00
38718;BME280;24468;52.128;9.278;2023-03-22T05:40:53;100009.00;;;11.09;100.00
38718;BME280;24468;52.128;9.278;2023-03-22T05:43:18;100001.34;;;11.17;100.00
38718;BME280;24468;52.128;9.278;2023-03-22T05:45:44;99998.25;;;11.25;100.00
38718;BME280;24468;52.128;9.278;2023-03-22T05:48:10;99993.00;;;11.22;100.00
38718;BME280;24468;52.128;9.278;2023-03-22T05:50:36;99993.44;;;11.14;100.00
38718;BME280;24468;52.128;9.278;2023-03-22T05:53:02;99996.63;;;11.05;100.00
38718;BME280;24468;52.128;9.278;2023-03-22T05:55:28;99998.03;;;11.12;100.00
38718;BME280;24468;52.128;9.278;2023-03-22T05:57:59;100008.91;;;10.95;100.00
38718;BME280;24468;52.128;9.278;2023-03-22T06:00:26;100001.22;;;10.87;100.00
38718;BME280;24468;52.128;9.278;2023-03-22T06:02:52;100002.75;;;10.75;100.00
38718;BME280;24468;52.128;9.278;2023-03-22T06:05:21;99991.00;;;10.76;100.00
38718;BME280;24468;52.128;9.278;2023-03-22T06:07:47;100004.38;;;10.62;100.00
38718;BME280;24468;52.128;9.278;2023-03-22T06:10:14;100002.81;;;10.74;100.00
38718;BME280;24468;52.128;9.278;2023-03-22T06:12:40;99992.72;;;10.61;100.00
38718;BME280;24468;52.128;9.278;2023-03-22T06:15:08;99988.72;;;10.68;100.00
38718;BME280;24468;52.128;9.278;2023-03-22T06:17:34;99987.56;;;10.90;100.00
38718;BME280;24468;52.128;9.278;2023-03-22T06:20:00;99989.88;;;10.80;100.00
38718;BME280;24468;52.128;9.278;2023-03-22T06:22:26;99998.81;;;10.65;100.00
38718;BME280;24468;52.128;9.278;2023-03-22T06:24:54;99991.16;;;10.73;100.00
38718;BME280;24468;52.128;9.278;2023-03-22T06:27:20;99996.06;;;10.82;100.00
38718;BME280;24468;52.128;9.278;2023-03-22T06:29:46;99985.13;;;11.01;100.00
38718;BME280;24468;52.128;9.278;2023-03-22T06:32:15;99985.69;;;11.08;100.00
38718;BME280;24468;52.128;9.278;2023-03-22T06:34:40;99987.94;;;11.00;100.00
38718;BME280;24468;52.128;9.278;2023-03-22T06:37:06;99982.59;;;10.98;100.00
38718;BME280;24468;52.128;9.278;2023-03-22T06:39:31;99986.56;;;11.08;100.00
38718;BME280;24468;52.128;9.278;2023-03-22T06:41:57;99988.56;;;11.21;100.00
38718;BME280;24468;52.128;9.278;2023-03-22T06:44:25;99987.75;;;11.19;100.00
38718;BME280;24468;52.128;9.278;2023-03-22T06:46:51;100000.84;;;11.42;100.00
38718;BME280;24468;52.128;9.278;2023-03-22T06:49:17;99988.91;;;11.46;100.00
38718;BME280;24468;52.128;9.278;2023-03-22T06:51:43;99991.59;;;11.46;100.00
38718;BME280;24468;52.128;9.278;2023-03-22T06:54:09;99981.22;;;11.54;100.00
38718;BME280;24468;52.128;9.278;2023-03-22T06:56:36;99984.66;;;11.42;100.00
38718;BME280;24468;52.128;9.278;2023-03-22T06:59:02;99985.56;;;11.73;100.00
38718;BME280;24468;52.128;9.278;2023-03-22T07:01:28;99992.47;;;11.78;100.00
38718;BME280;24468;52.128;9.278;2023-03-22T07:03:53;99984.97;;;11.84;100.00
38718;BME280;24468;52.128;9.278;2023-03-22T07:06:19;99984.78;;;11.71;100.00
38718;BME280;24468;52.128;9.278;2023-03-22T07:08:44;99988.97;;;11.92;100.00
38718;BME280;24468;52.128;9.278;2023-03-22T07:11:10;99981.53;;;12.12;100.00
38718;BME280;24468;52.128;9.278;2023-03-22T07:13:35;99974.22;;;12.28;100.00
38718;BME280;24468;52.128;9.278;2023-03-22T07:16:01;99978.13;;;12.38;100.00
38718;BME280;24468;52.128;9.278;2023-03-22T07:18:28;99981.25;;;12.61;100.00
38718;BME280;24468;52.128;9.278;2023-03-22T07:20:54;99968.63;;;12.76;100.00
38718;BME280;24468;52.128;9.278;2023-03-22T07:23:19;99962.91;;;12.95;100.00
38718;BME280;24468;52.128;9.278;2023-03-22T07:25:46;99970.34;;;12.77;100.00
38718;BME280;24468;52.128;9.278;2023-03-22T07:28:13;99967.81;;;12.88;100.00
38718;BME280;24468;52.128;9.278;2023-03-22T07:30:40;99974.41;;;12.84;100.00
38718;BME280;24468;52.128;9.278;2023-03-22T07:33:08;99972.75;;;12.96;100.00
38718;BME280;24468;52.128;9.278;2023-03-22T07:35:35;99971.03;;;13.09;100.00
38718;BME280;24468;52.128;9.278;2023-03-22T07:38:03;99959.69;;;12.88;100.00
38718;BME280;24468;52.128;9.278;2023-03-22T07:40:29;99963.16;;;13.47;100.00
38718;BME280;24468;52.128;9.278;2023-03-22T07:42:56;99962.66;;;13.55;100.00
38718;BME280;24468;52.128;9.278;2023-03-22T07:45:24;99961.03;;;13.38;100.00
38718;BME280;24468;52.128;9.278;2023-03-22T07:47:49;99952.75;;;13.54;100.00
38718;BME280;24468;52.128;9.278;2023-03-22T07:50:15;99959.09;;;13.40;100.00
38718;BME280;24468;52.128;9.278;2023-03-22T07:52:43;99961.56;;;13.30;100.00
38718;BME280;24468;52.128;9.278;2023-03-22T07:55:11;99950.47;;;13.48;100.00
38718;BME280;24468;52.128;9.278;2023-03-22T07:57:37;99951.00;;;13.26;100.00
38718;BME280;24468;52.128;9.278;2023-03-22T08:00:05;99943.56;;;13.56;100.00
38718;BME280;24468;52.128;9.278;2023-03-22T08:02:31;99940.25;;;13.39;100.00
38718;BME280;24468;52.128;9.278;2023-03-22T08:04:57;99952.47;;;13.59;100.00
38718;BME280;24468;52.128;9.278;2023-03-22T08:07:23;99946.44;;;13.68;100.00
38718;BME280;24468;52.128;9.278;2023-03-22T08:09:51;99934.47;;;13.57;100.00
38718;BME280;24468;52.128;9.278;2023-03-22T08:12:17;99934.16;;;13.62;100.00
38718;BME280;24468;52.128;9.278;2023-03-22T08:14:43;99935.34;;;13.58;100.00
38718;BME280;24468;52.128;9.278;2023-03-22T08:17:12;99937.00;;;13.46;100.00
38718;BME280;24468;52.128;9.278;2023-03-22T08:19:38;99925.63;;;13.27;100.00
38718;BME280;24468;52.128;9.278;2023-03-22T08:22:03;99916.56;;;13.28;100.00
38718;BME280;24468;52.128;9.278;2023-03-22T08:24:29;99914.59;;;13.30;100.00
38718;BME280;24468;52.128;9.278;2023-03-22T08:26:55;99914.31;;;13.62;100.00
38718;BME280;24468;52.128;9.278;2023-03-22T08:29:21;99918.00;;;13.33;100.00
38718;BME280;24468;52.128;9.278;2023-03-22T08:31:48;99919.34;;;13.26;100.00
38718;BME280;24468;52.128;9.278;2023-03-22T08:34:13;99918.19;;;13.30;100.00
38718;BME280;24468;52.128;9.278;2023-03-22T08:36:39;99906.81;;;13.52;100.00
38718;BME280;24468;52.128;9.278;2023-03-22T08:39:06;99903.19;;;13.39;100.00
38718;BME280;24468;52.128;9.278;2023-03-22T08:41:33;99912.88;;;13.83;100.00
38718;BME280;24468;52.128;9.278;2023-03-22T08:43:59;99904.31;;;13.89;100.00
38718;BME280;24468;52.128;9.278;2023-03-22T08:46:24;99896.03;;;14.18;100.00
38718;BME280;24468;52.128;9.278;2023-03-22T08:48:50;99899.25;;;14.23;100.00
38718;BME280;24468;52.128;9.278;2023-03-22T08:51:20;99903.38;;;14.03;100.00
38718;BME280;24468;52.128;9.278;2023-03-22T08:53:47;99907.78;;;13.91;100.00
38718;BME280;24468;52.128;9.278;2023-03-22T08:56:13;99892.97;;;14.10;100.00
38718;BME280;24468;52.128;9.278;2023-03-22T08:58:43;99903.38;;;14.03;100.00
38718;BME280;24468;52.128;9.278;2023-03-22T09:01:16;99890.81;;;14.28;100.00
38718;BME280;24468;52.128;9.278;2023-03-22T09:03:42;99883.44;;;14.30;100.00
38718;BME280;24468;52.128;9.278;2023-03-22T09:06:09;99891.88;;;14.12;100.00
38718;BME280;24468;52.128;9.278;2023-03-22T09:08:35;99885.03;;;14.19;100.00
38718;BME280;24468;52.128;9.278;2023-03-22T09:11:02;99876.06;;;14.32;100.00
38718;BME280;24468;52.128;9.278;2023-03-22T09:13:28;99870.97;;;14.53;100.00
38718;BME280;24468;52.128;9.278;2023-03-22T09:15:56;99863.78;;;14.13;100.00
38718;BME280;24468;52.128;9.278;2023-03-22T09:18:22;99863.03;;;14.24;100.00
38718;BME280;24468;52.128;9.278;2023-03-22T09:20:49;99868.13;;;14.16;100.00
38718;BME280;24468;52.128;9.278;2023-03-22T09:23:15;99866.38;;;14.28;100.00
38718;BME280;24468;52.128;9.278;2023-03-22T09:25:47;99857.91;;;14.45;100.00
38718;BME280;24468;52.128;9.278;2023-03-22T09:28:13;99856.00;;;14.60;100.00
38718;BME280;24468;52.128;9.278;2023-03-22T09:30:38;99862.56;;;14.17;100.00
38718;BME280;24468;52.128;9.278;2023-03-22T09:33:04;99856.59;;;14.12;100.00
38718;BME280;24468;52.128;9.278;2023-03-22T09:35:31;99855.63;;;13.88;100.00
38718;BME280;24468;52.128;9.278;2023-03-22T09:37:57;99848.31;;;13.75;100.00
38718;BME280;24468;52.128;9.278;2023-03-22T09:40:28;99844.47;;;14.05;100.00
38718;BME280;24468;52.128;9.278;2023-03-22T09:42:59;99837.38;;;13.90;100.00
38718;BME280;24468;52.128;9.278;2023-03-22T09:45:38;99839.97;;;13.78;100.00
38718;BME280;24468;52.128;9.278;2023-03-22T09:48:19;99838.25;;;14.29;100.00
38718;BME280;24468;52.128;9.278;2023-03-22T09:50:51;99834.38;;;14.58;100.00
38718;BME280;24468;52.128;9.278;2023-03-22T09:53:18;99826.63;;;14.78;100.00
38718;BME280;24468;52.128;9.278;2023-03-22T09:56:19;99819.38;;;13.89;100.00
38718;BME280;24468;52.128;9.278;2023-03-22T10:10:17;99822.09;;;14.65;100.00
38718;BME280;24468;52.128;9.278;2023-03-22T10:13:04;99826.44;;;15.05;100.00
38718;BME280;24468;52.128;9.278;2023-03-22T10:15:39;99794.44;;;14.35;100.00
38718;BME280;24468;52.128;9.278;2023-03-22T10:18:12;99808.50;;;14.78;100.00
38718;BME280;24468;52.128;9.278;2023-03-22T10:20:59;99822.78;;;14.93;98.43
38718;BME280;24468;52.128;9.278;2023-03-22T10:23:34;99815.03;;;14.63;98.53
38718;BME280;24468;52.128;9.278;2023-03-22T10:26:03;99811.53;;;14.86;99.35
38718;BME280;24468;52.128;9.278;2023-03-22T10:30:58;99825.56;;;14.42;96.54
38718;BME280;24468;52.128;9.278;2023-03-22T10:36:01;99800.59;;;14.62;95.84
38718;BME280;24468;52.128;9.278;2023-03-22T10:38:29;99801.88;;;14.70;97.26
38718;BME280;24468;52.128;9.278;2023-03-22T10:40:58;99810.63;;;14.86;96.63
38718;BME280;24468;52.128;9.278;2023-03-22T10:43:35;99803.56;;;14.83;97.68
38718;BME280;24468;52.128;9.278;2023-03-22T10:46:04;99810.50;;;15.00;96.25
38718;BME280;24468;52.128;9.278;2023-03-22T10:48:35;99814.41;;;14.59;96.44
38718;BME280;24468;52.128;9.278;2023-03-22T10:51:03;99795.72;;;14.67;97.49
38718;BME280;24468;52.128;9.278;2023-03-22T10:53:39;99791.28;;;14.90;95.51
38718;BME280;24468;52.128;9.278;2023-03-22T10:56:24;99775.34;;;15.10;95.09
38718;BME280;24468;52.128;9.278;2023-03-22T10:58:50;99779.63;;;15.25;95.70
38718;BME280;24468;52.128;9.278;2023-03-22T11:01:34;99766.28;;;14.98;90.69
38718;BME280;24468;52.128;9.278;2023-03-22T11:04:09;99787.31;;;15.07;94.91
38718;BME280;24468;52.128;9.278;2023-03-22T11:06:49;99781.44;;;14.77;95.03
38718;BME280;24468;52.128;9.278;2023-03-22T11:11:51;99793.31;;;15.72;94.07
38718;BME280;24468;52.128;9.278;2023-03-22T11:14:36;99766.63;;;15.77;89.86
38718;BME280;24468;52.128;9.278;2023-03-22T11:17:23;99794.63;;;15.66;85.72
38718;BME280;24468;52.128;9.278;2023-03-22T11:19:59;99786.03;;;15.84;86.75
38718;BME280;24468;52.128;9.278;2023-03-22T11:22:38;99798.19;;;15.67;86.49
38718;BME280;24468;52.128;9.278;2023-03-22T11:25:24;99804.47;;;15.91;87.11
38718;BME280;24468;52.128;9.278;2023-03-22T11:28:07;99811.09;;;15.76;88.44
38718;BME280;24468;52.128;9.278;2023-03-22T11:30:35;99800.66;;;15.34;88.66
38718;BME280;24468;52.128;9.278;2023-03-22T11:33:19;99821.78;;;15.31;88.72
38718;BME280;24468;52.128;9.278;2023-03-22T11:35:52;99808.31;;;16.00;89.22
38718;BME280;24468;52.128;9.278;2023-03-22T11:41:00;99799.91;;;15.68;88.88
38718;BME280;24468;52.128;9.278;2023-03-22T11:43:41;99806.34;;;15.67;87.77
38718;BME280;24468;52.128;9.278;2023-03-22T11:46:16;99805.59;;;15.89;88.91
38718;BME280;24468;52.128;9.278;2023-03-22T11:48:45;99796.34;;;16.14;86.69
38718;BME280;24468;52.128;9.278;2023-03-22T11:51:16;99791.13;;;15.88;84.26
38718;BME280;24468;52.128;9.278;2023-03-22T11:53:46;99779.16;;;16.13;85.08
38718;BME280;24468;52.128;9.278;2023-03-22T11:56:25;99793.13;;;16.09;84.84
38718;BME280;24468;52.128;9.278;2023-03-22T11:59:04;99805.53;;;16.35;85.41
38718;BME280;24468;52.128;9.278;2023-03-22T12:01:56;99772.72;;;15.68;81.66
38718;BME280;24468;52.128;9.278;2023-03-22T12:04:28;99792.69;;;15.79;85.72
38718;BME280;24468;52.128;9.278;2023-03-22T12:06:58;99799.38;;;15.87;84.38
38718;BME280;24468;52.128;9.278;2023-03-22T12:10:03;99803.22;;;15.84;85.92
38718;BME280;24468;52.128;9.278;2023-03-22T12:12:32;99810.47;;;15.72;83.95
38718;BME280;24468;52.128;9.278;2023-03-22T12:15:09;99799.91;;;15.92;84.01
38718;BME280;24468;52.128;9.278;2023-03-22T12:18:25;99805.28;;;16.38;84.41
38718;BME280;24468;52.128;9.278;2023-03-22T12:20:57;99795.22;;;15.94;85.85
38718;BME280;24468;52.128;9.278;2023-03-22T12:23:27;99797.50;;;15.76;85.04
38718;BME280;24468;52.128;9.278;2023-03-22T12:26:16;99788.72;;;15.48;86.19
38718;BME280;24468;52.128;9.278;2023-03-22T12:28:58;99803.84;;;15.52;85.23
38718;BME280;24468;52.128;9.278;2023-03-22T12:31:31;99795.91;;;15.85;83.84
38718;BME280;24468;52.128;9.278;2023-03-22T12:34:00;99812.53;;;15.33;84.91
38718;BME280;24468;52.128;9.278;2023-03-22T12:36:42;99794.47;;;15.92;83.46
38718;BME280;24468;52.128;9.278;2023-03-22T12:43:01;99780.38;;;16.09;83.81
38718;BME280;24468;52.128;9.278;2023-03-22T12:45:36;99779.00;;;16.04;82.83
38718;BME280;24468;52.128;9.278;2023-03-22T12:51:11;99763.78;;;16.01;85.46
38718;BME280;24468;52.128;9.278;2023-03-22T12:53:45;99757.50;;;16.12;84.16
38718;BME280;24468;52.128;9.278;2023-03-22T12:56:15;99753.56;;;16.05;82.28
38718;BME280;24468;52.128;9.278;2023-03-22T12:58:46;99752.22;;;15.64;83.10
38718;BME280;24468;52.128;9.278;2023-03-22T13:03:52;99741.16;;;16.34;82.10
38718;BME280;24468;52.128;9.278;2023-03-22T13:07:07;99740.69;;;16.52;81.50
38718;BME280;24468;52.128;9.278;2023-03-22T13:09:38;99747.22;;;15.93;84.35
38718;BME280;24468;52.128;9.278;2023-03-22T13:20:19;99746.88;;;16.09;82.18
38718;BME280;24468;52.128;9.278;2023-03-22T13:28:03;99733.41;;;16.18;85.93
38718;BME280;24468;52.128;9.278;2023-03-22T13:30:56;99742.41;;;15.96;88.27
38718;BME280;24468;52.128;9.278;2023-03-22T13:33:32;99747.13;;;16.06;85.84
38718;BME280;24468;52.128;9.278;2023-03-22T13:36:23;99738.84;;;16.30;84.17
38718;BME280;24468;52.128;9.278;2023-03-22T13:38:58;99755.41;;;16.15;80.21
38718;BME280;24468;52.128;9.278;2023-03-22T13:41:33;99746.38;;;16.04;83.42
38718;BME280;24468;52.128;9.278;2023-03-22T13:44:35;99753.91;;;15.89;83.32
38718;BME280;24468;52.128;9.278;2023-03-22T13:47:01;99753.31;;;16.08;86.09
38718;BME280;24468;52.128;9.278;2023-03-22T13:49:43;99767.28;;;16.26;84.85
38718;BME280;24468;52.128;9.278;2023-03-22T13:52:28;99747.47;;;15.54;85.77
38718;BME280;24468;52.128;9.278;2023-03-22T13:54:58;99765.53;;;15.20;89.75
38718;BME280;24468;52.128;9.278;2023-03-22T13:57:46;99756.91;;;15.02;94.89
38718;BME280;24468;52.128;9.278;2023-03-22T14:03:12;99762.97;;;14.82;98.61
38718;BME280;24468;52.128;9.278;2023-03-22T14:05:38;99781.06;;;14.57;100.00
38718;BME280;24468;52.128;9.278;2023-03-22T14:08:20;99766.94;;;14.65;100.00
38718;BME280;24468;52.128;9.278;2023-03-22T14:11:01;99780.31;;;14.92;100.00
38718;BME280;24468;52.128;9.278;2023-03-22T14:13:37;99766.16;;;14.76;100.00
38718;BME280;24468;52.128;9.278;2023-03-22T14:16:37;99776.44;;;15.07;100.00
38718;BME280;24468;52.128;9.278;2023-03-22T14:19:06;99783.03;;;14.92;100.00
38718;BME280;24468;52.128;9.278;2023-03-22T14:21:38;99776.94;;;14.88;100.00
38718;BME280;24468;52.128;9.278;2023-03-22T14:24:07;99771.25;;;15.04;100.00
38718;BME280;24468;52.128;9.278;2023-03-22T14:26:42;99770.63;;;15.25;100.00
38718;BME280;24468;52.128;9.278;2023-03-22T14:31:36;99774.09;;;15.38;100.00
38718;BME280;24468;52.128;9.278;2023-03-22T14:34:07;99770.81;;;15.46;100.00